sensor_id;sensor_type;location;lat;lon;timestamp;temperature;humidity
37322;DHT22;23697;48.684;9.032;2023-08-07T00:02:27;10.90;87.70
37322;DHT22;23697;48.684;9.032;2023-08-07T00:05:03;10.90;87.30
37322;DHT22;23697;48.684;9.032;2023-08-07T00:07:31;10.80;87.50
37322;DHT22;23697;48.684;9.032;2023-08-07T00:10:07;10.90;87.70
37322;DHT22;23697;48.684;9.032;2023-08-07T00:12:52;10.90;87.60
37322;DHT22;23697;48.684;9.032;2023-08-07T00:15:33;10.80;87.60
37322;DHT22;23697;48.684;9.032;2023-08-07T00:18:13;10.90;87.60
37322;DHT22;23697;48.684;9.032;2023-08-07T00:20:44;10.80;87.60
37322;DHT22;23697;48.684;9.032;2023-08-07T00:23:28;10.80;87.30
37322;DHT22;23697;48.684;9.032;2023-08-07T00:27:11;10.80;87.20
37322;DHT22;23697;48.684;9.032;2023-08-07T00:28:59;10.80;87.20
37322;DHT22;23697;48.684;9.032;2023-08-07T00:31:29;10.70;87.10
37322;DHT22;23697;48.684;9.032;2023-08-07T00:33:56;10.70;87.40
37322;DHT22;23697;48.684;9.032;2023-08-07T00:36:27;10.70;87.50
37322;DHT22;23697;48.684;9.032;2023-08-07T00:39:03;10.70;87.30
37322;DHT22;23697;48.684;9.032;2023-08-07T00:41:32;10.70;87.20
37322;DHT22;23697;48.684;9.032;2023-08-07T00:44:02;10.70;86.90
37322;DHT22;23697;48.684;9.032;2023-08-07T00:46:29;10.60;87.00
37322;DHT22;23697;48.684;9.032;2023-08-07T00:49:20;10.60;87.10
37322;DHT22;23697;48.684;9.032;2023-08-07T00:51:47;10.60;87.10
37322;DHT22;23697;48.684;9.032;2023-08-07T00:54:19;10.60;87.00
37322;DHT22;23697;48.684;9.032;2023-08-07T00:56:47;10.60;87.20
37322;DHT22;23697;48.684;9.032;2023-08-07T00:59:16;10.60;87.10
37322;DHT22;23697;48.684;9.032;2023-08-07T01:01:43;10.60;87.30
37322;DHT22;23697;48.684;9.032;2023-08-07T01:04:10;10.60;87.40
37322;DHT22;23697;48.684;9.032;2023-08-07T01:06:40;10.60;87.30
37322;DHT22;23697;48.684;9.032;2023-08-07T01:09:13;10.60;87.00
37322;DHT22;23697;48.684;9.032;2023-08-07T01:11:45;10.60;86.90
37322;DHT22;23697;48.684;9.032;2023-08-07T01:14:25;10.60;87.00
37322;DHT22;23697;48.684;9.032;2023-08-07T01:16:59;10.60;87.10
37322;DHT22;23697;48.684;9.032;2023-08-07T01:19:28;10.60;87.30
37322;DHT22;23697;48.684;9.032;2023-08-07T01:22:06;10.60;87.10
37322;DHT22;23697;48.684;9.032;2023-08-07T01:24:33;10.60;86.90
37322;DHT22;23697;48.684;9.032;2023-08-07T01:27:06;10.60;87.00
37322;DHT22;23697;48.684;9.032;2023-08-07T01:29:39;10.70;86.50
37322;DHT22;23697;48.684;9.032;2023-08-07T01:32:10;10.60;86.50
37322;DHT22;23697;48.684;9.032;2023-08-07T01:34:41;10.60;86.90
37322;DHT22;23697;48.684;9.032;2023-08-07T01:37:10;10.60;86.70
37322;DHT22;23697;48.684;9.032;2023-08-07T01:39:39;10.60;86.50
37322;DHT22;23697;48.684;9.032;2023-08-07T01:42:07;10.60;86.50
37322;DHT22;23697;48.684;9.032;2023-08-07T01:44:36;10.60;86.40
37322;DHT22;23697;48.684;9.032;2023-08-07T01:47:04;10.70;86.60
37322;DHT22;23697;48.684;9.032;2023-08-07T01:49:30;10.60;86.30
37322;DHT22;23697;48.684;9.032;2023-08-07T01:51:57;10.70;86.30
37322;DHT22;23697;48.684;9.032;2023-08-07T01:54:26;10.70;86.60
37322;DHT22;23697;48.684;9.032;2023-08-07T01:56:52;10.70;86.40
37322;DHT22;23697;48.684;9.032;2023-08-07T01:59:19;10.70;86.10
37322;DHT22;23697;48.684;9.032;2023-08-07T02:01:46;10.70;85.90
37322;DHT22;23697;48.684;9.032;2023-08-07T02:04:13;10.80;86.40
37322;DHT22;23697;48.684;9.032;2023-08-07T02:06:40;10.80;86.00
37322;DHT22;23697;48.684;9.032;2023-08-07T02:09:07;10.80;85.80
37322;DHT22;23697;48.684;9.032;2023-08-07T02:11:38;10.80;85.90
37322;DHT22;23697;48.684;9.032;2023-08-07T02:14:05;10.70;85.70
37322;DHT22;23697;48.684;9.032;2023-08-07T02:16:32;10.70;85.80
37322;DHT22;23697;48.684;9.032;2023-08-07T02:18:59;10.80;86.00
37322;DHT22;23697;48.684;9.032;2023-08-07T02:21:26;10.70;85.70
37322;DHT22;23697;48.684;9.032;2023-08-07T02:23:52;10.80;86.10
37322;DHT22;23697;48.684;9.032;2023-08-07T02:26:19;10.80;85.80
37322;DHT22;23697;48.684;9.032;2023-08-07T02:28:48;10.80;85.90
37322;DHT22;23697;48.684;9.032;2023-08-07T02:31:14;10.80;85.60
37322;DHT22;23697;48.684;9.032;2023-08-07T02:33:41;10.80;85.50
37322;DHT22;23697;48.684;9.032;2023-08-07T02:36:08;10.80;85.10
37322;DHT22;23697;48.684;9.032;2023-08-07T02:38:35;10.90;84.90
37322;DHT22;23697;48.684;9.032;2023-08-07T02:41:02;10.90;84.80
37322;DHT22;23697;48.684;9.032;2023-08-07T02:43:29;10.90;85.30
37322;DHT22;23697;48.684;9.032;2023-08-07T02:46:00;10.90;85.00
37322;DHT22;23697;48.684;9.032;2023-08-07T02:48:27;10.90;85.40
37322;DHT22;23697;48.684;9.032;2023-08-07T02:50:53;10.90;85.00
37322;DHT22;23697;48.684;9.032;2023-08-07T02:53:20;10.90;84.60
37322;DHT22;23697;48.684;9.032;2023-08-07T02:55:47;10.90;84.80
37322;DHT22;23697;48.684;9.032;2023-08-07T02:58:14;10.90;84.50
37322;DHT22;23697;48.684;9.032;2023-08-07T03:00:41;10.90;83.90
37322;DHT22;23697;48.684;9.032;2023-08-07T03:03:10;10.80;84.10
37322;DHT22;23697;48.684;9.032;2023-08-07T03:05:37;10.90;83.20
37322;DHT22;23697;48.684;9.032;2023-08-07T03:08:04;10.90;83.50
37322;DHT22;23697;48.684;9.032;2023-08-07T03:10:31;10.90;83.00
37322;DHT22;23697;48.684;9.032;2023-08-07T03:12:58;10.90;83.50
37322;DHT22;23697;48.684;9.032;2023-08-07T03:15:24;10.80;83.00
37322;DHT22;23697;48.684;9.032;2023-08-07T03:17:51;10.80;83.10
37322;DHT22;23697;48.684;9.032;2023-08-07T03:20:19;10.80;83.30
37322;DHT22;23697;48.684;9.032;2023-08-07T03:22:46;10.80;83.00
37322;DHT22;23697;48.684;9.032;2023-08-07T03:25:13;10.80;82.80
37322;DHT22;23697;48.684;9.032;2023-08-07T03:27:40;10.70;83.50
37322;DHT22;23697;48.684;9.032;2023-08-07T03:30:07;10.70;83.90
37322;DHT22;23697;48.684;9.032;2023-08-07T03:32:36;10.70;83.90
37322;DHT22;23697;48.684;9.032;2023-08-07T03:35:03;10.70;82.90
37322;DHT22;23697;48.684;9.032;2023-08-07T03:37:32;10.70;83.60
37322;DHT22;23697;48.684;9.032;2023-08-07T03:39:59;10.70;84.20
37322;DHT22;23697;48.684;9.032;2023-08-07T03:42:25;10.70;84.40
37322;DHT22;23697;48.684;9.032;2023-08-07T03:44:52;10.70;84.10
37322;DHT22;23697;48.684;9.032;2023-08-07T03:47:19;10.70;84.20
37322;DHT22;23697;48.684;9.032;2023-08-07T03:49:46;10.70;83.90
37322;DHT22;23697;48.684;9.032;2023-08-07T03:52:13;10.70;83.50
37322;DHT22;23697;48.684;9.032;2023-08-07T03:54:41;10.70;83.20
37322;DHT22;23697;48.684;9.032;2023-08-07T03:57:08;10.70;83.50
37322;DHT22;23697;48.684;9.032;2023-08-07T03:59:36;10.60;83.80
37322;DHT22;23697;48.684;9.032;2023-08-07T04:02:03;10.60;84.10
37322;DHT22;23697;48.684;9.032;2023-08-07T04:04:30;10.60;84.10
37322;DHT22;23697;48.684;9.032;2023-08-07T04:06:57;10.50;84.10
37322;DHT22;23697;48.684;9.032;2023-08-07T04:09:24;10.50;84.20
37322;DHT22;23697;48.684;9.032;2023-08-07T04:11:52;10.50;84.20
37322;DHT22;23697;48.684;9.032;2023-08-07T04:14:19;10.40;84.50
37322;DHT22;23697;48.684;9.032;2023-08-07T04:16:46;10.50;84.40
37322;DHT22;23697;48.684;9.032;2023-08-07T04:19:13;10.40;84.60
37322;DHT22;23697;48.684;9.032;2023-08-07T04:21:40;10.40;84.50
37322;DHT22;23697;48.684;9.032;2023-08-07T04:24:06;10.40;84.20
37322;DHT22;23697;48.684;9.032;2023-08-07T04:26:36;10.40;84.50
37322;DHT22;23697;48.684;9.032;2023-08-07T04:29:05;10.30;84.70
37322;DHT22;23697;48.684;9.032;2023-08-07T04:31:33;10.30;84.50
37322;DHT22;23697;48.684;9.032;2023-08-07T04:33:59;10.40;84.90
37322;DHT22;23697;48.684;9.032;2023-08-07T04:36:26;10.30;84.50
37322;DHT22;23697;48.684;9.032;2023-08-07T04:38:53;10.30;84.80
37322;DHT22;23697;48.684;9.032;2023-08-07T04:41:21;10.30;84.60
37322;DHT22;23697;48.684;9.032;2023-08-07T04:43:48;10.30;84.60
37322;DHT22;23697;48.684;9.032;2023-08-07T04:46:16;10.30;84.50
37322;DHT22;23697;48.684;9.032;2023-08-07T04:48:43;10.30;84.50
37322;DHT22;23697;48.684;9.032;2023-08-07T04:51:10;10.30;84.90
37322;DHT22;23697;48.684;9.032;2023-08-07T04:53:36;10.30;85.00
37322;DHT22;23697;48.684;9.032;2023-08-07T04:56:04;10.30;84.70
37322;DHT22;23697;48.684;9.032;2023-08-07T04:58:30;10.30;85.00
37322;DHT22;23697;48.684;9.032;2023-08-07T05:00:58;10.40;85.10
37322;DHT22;23697;48.684;9.032;2023-08-07T05:03:27;10.30;85.00
37322;DHT22;23697;48.684;9.032;2023-08-07T05:06:00;10.40;84.70
37322;DHT22;23697;48.684;9.032;2023-08-07T05:08:27;10.40;84.80
37322;DHT22;23697;48.684;9.032;2023-08-07T05:10:54;10.50;84.40
37322;DHT22;23697;48.684;9.032;2023-08-07T05:13:21;10.50;84.20
37322;DHT22;23697;48.684;9.032;2023-08-07T05:15:48;10.60;84.60
37322;DHT22;23697;48.684;9.032;2023-08-07T05:18:15;10.60;84.80
37322;DHT22;23697;48.684;9.032;2023-08-07T05:21:06;10.70;83.90
37322;DHT22;23697;48.684;9.032;2023-08-07T05:23:34;10.80;83.70
37322;DHT22;23697;48.684;9.032;2023-08-07T05:26:01;10.90;83.90
37322;DHT22;23697;48.684;9.032;2023-08-07T05:28:28;10.90;83.90
37322;DHT22;23697;48.684;9.032;2023-08-07T05:30:55;10.90;83.10
37322;DHT22;23697;48.684;9.032;2023-08-07T05:33:22;11.00;83.60
37322;DHT22;23697;48.684;9.032;2023-08-07T05:35:49;11.10;83.00
37322;DHT22;23697;48.684;9.032;2023-08-07T05:38:19;11.10;83.00
37322;DHT22;23697;48.684;9.032;2023-08-07T05:40:46;11.20;82.50
37322;DHT22;23697;48.684;9.032;2023-08-07T05:43:13;11.20;83.10
37322;DHT22;23697;48.684;9.032;2023-08-07T05:45:42;11.30;82.70
37322;DHT22;23697;48.684;9.032;2023-08-07T05:48:10;11.40;82.10
37322;DHT22;23697;48.684;9.032;2023-08-07T05:50:37;11.40;81.50
37322;DHT22;23697;48.684;9.032;2023-08-07T05:53:04;11.50;81.90
37322;DHT22;23697;48.684;9.032;2023-08-07T05:55:32;11.50;81.50
37322;DHT22;23697;48.684;9.032;2023-08-07T05:57:59;11.60;81.80
37322;DHT22;23697;48.684;9.032;2023-08-07T06:00:26;11.60;82.40
37322;DHT22;23697;48.684;9.032;2023-08-07T06:02:53;11.60;81.90
37322;DHT22;23697;48.684;9.032;2023-08-07T06:05:20;11.60;82.40
37322;DHT22;23697;48.684;9.032;2023-08-07T06:07:47;11.70;81.40
37322;DHT22;23697;48.684;9.032;2023-08-07T06:10:14;11.70;81.70
37322;DHT22;23697;48.684;9.032;2023-08-07T06:12:42;11.80;81.20
37322;DHT22;23697;48.684;9.032;2023-08-07T06:15:12;11.80;81.00
37322;DHT22;23697;48.684;9.032;2023-08-07T06:17:39;11.90;81.20
37322;DHT22;23697;48.684;9.032;2023-08-07T06:20:07;11.90;81.60
37322;DHT22;23697;48.684;9.032;2023-08-07T06:22:37;12.00;80.70
37322;DHT22;23697;48.684;9.032;2023-08-07T06:25:04;12.00;80.00
37322;DHT22;23697;48.684;9.032;2023-08-07T06:27:32;11.90;79.50
37322;DHT22;23697;48.684;9.032;2023-08-07T06:30:00;11.90;79.70
37322;DHT22;23697;48.684;9.032;2023-08-07T06:32:27;12.00;80.30
37322;DHT22;23697;48.684;9.032;2023-08-07T06:34:54;12.00;80.10
37322;DHT22;23697;48.684;9.032;2023-08-07T06:37:21;12.00;80.40
37322;DHT22;23697;48.684;9.032;2023-08-07T06:39:47;12.00;79.90
37322;DHT22;23697;48.684;9.032;2023-08-07T06:42:14;12.10;79.40
37322;DHT22;23697;48.684;9.032;2023-08-07T06:44:41;12.10;77.90
37322;DHT22;23697;48.684;9.032;2023-08-07T06:47:09;12.20;80.10
37322;DHT22;23697;48.684;9.032;2023-08-07T06:49:36;12.20;79.40
37322;DHT22;23697;48.684;9.032;2023-08-07T06:52:04;12.20;79.60
37322;DHT22;23697;48.684;9.032;2023-08-07T06:54:31;12.30;79.20
37322;DHT22;23697;48.684;9.032;2023-08-07T06:56:58;12.30;79.00
37322;DHT22;23697;48.684;9.032;2023-08-07T06:59:24;12.40;79.30
37322;DHT22;23697;48.684;9.032;2023-08-07T07:01:51;12.40;78.90
37322;DHT22;23697;48.684;9.032;2023-08-07T07:04:19;12.50;78.70
37322;DHT22;23697;48.684;9.032;2023-08-07T07:06:46;12.60;78.40
37322;DHT22;23697;48.684;9.032;2023-08-07T07:09:13;12.70;77.40
37322;DHT22;23697;48.684;9.032;2023-08-07T07:11:42;12.80;77.10
37322;DHT22;23697;48.684;9.032;2023-08-07T07:14:10;12.80;77.20
37322;DHT22;23697;48.684;9.032;2023-08-07T07:16:37;12.80;77.10
37322;DHT22;23697;48.684;9.032;2023-08-07T07:19:04;12.60;78.00
37322;DHT22;23697;48.684;9.032;2023-08-07T07:21:33;12.60;77.90
37322;DHT22;23697;48.684;9.032;2023-08-07T07:24:00;12.90;77.90
37322;DHT22;23697;48.684;9.032;2023-08-07T07:26:27;13.10;78.20
37322;DHT22;23697;48.684;9.032;2023-08-07T07:28:56;13.50;76.40
37322;DHT22;23697;48.684;9.032;2023-08-07T07:31:24;13.60;75.20
37322;DHT22;23697;48.684;9.032;2023-08-07T07:33:51;13.80;73.40
37322;DHT22;23697;48.684;9.032;2023-08-07T07:36:19;14.00;74.00
37322;DHT22;23697;48.684;9.032;2023-08-07T07:38:47;14.20;73.10
37322;DHT22;23697;48.684;9.032;2023-08-07T07:41:14;14.40;68.50
37322;DHT22;23697;48.684;9.032;2023-08-07T07:43:41;14.50;70.30
37322;DHT22;23697;48.684;9.032;2023-08-07T07:46:10;14.70;69.40
37322;DHT22;23697;48.684;9.032;2023-08-07T07:48:39;14.90;66.90
37322;DHT22;23697;48.684;9.032;2023-08-07T07:51:06;14.90;66.40
37322;DHT22;23697;48.684;9.032;2023-08-07T07:53:33;14.70;67.00
37322;DHT22;23697;48.684;9.032;2023-08-07T07:56:01;14.90;68.30
37322;DHT22;23697;48.684;9.032;2023-08-07T07:58:28;15.10;68.40
37322;DHT22;23697;48.684;9.032;2023-08-07T08:00:55;15.20;66.50
37322;DHT22;23697;48.684;9.032;2023-08-07T08:03:22;15.10;64.40
37322;DHT22;23697;48.684;9.032;2023-08-07T08:05:50;15.30;63.20
37322;DHT22;23697;48.684;9.032;2023-08-07T08:08:17;15.40;65.60
37322;DHT22;23697;48.684;9.032;2023-08-07T08:10:45;15.40;65.60
37322;DHT22;23697;48.684;9.032;2023-08-07T08:13:15;15.60;63.80
37322;DHT22;23697;48.684;9.032;2023-08-07T08:15:42;15.80;65.20
37322;DHT22;23697;48.684;9.032;2023-08-07T08:18:09;16.00;63.40
37322;DHT22;23697;48.684;9.032;2023-08-07T08:20:36;15.80;62.40
37322;DHT22;23697;48.684;9.032;2023-08-07T08:23:03;15.90;62.70
37322;DHT22;23697;48.684;9.032;2023-08-07T08:25:30;16.10;62.80
37322;DHT22;23697;48.684;9.032;2023-08-07T08:28:00;16.20;63.10
37322;DHT22;23697;48.684;9.032;2023-08-07T08:30:30;16.30;61.10
37322;DHT22;23697;48.684;9.032;2023-08-07T08:32:57;16.10;61.70
37322;DHT22;23697;48.684;9.032;2023-08-07T08:35:24;16.20;63.40
37322;DHT22;23697;48.684;9.032;2023-08-07T08:37:51;16.30;59.40
37322;DHT22;23697;48.684;9.032;2023-08-07T08:40:36;16.40;58.10
37322;DHT22;23697;48.684;9.032;2023-08-07T08:43:07;16.80;60.70
37322;DHT22;23697;48.684;9.032;2023-08-07T08:45:41;17.10;60.40
37322;DHT22;23697;48.684;9.032;2023-08-07T08:48:13;17.00;56.30
37322;DHT22;23697;48.684;9.032;2023-08-07T08:50:44;16.70;57.10
37322;DHT22;23697;48.684;9.032;2023-08-07T08:53:11;16.70;59.10
37322;DHT22;23697;48.684;9.032;2023-08-07T08:55:39;16.80;55.10
37322;DHT22;23697;48.684;9.032;2023-08-07T08:58:09;17.00;56.70
37322;DHT22;23697;48.684;9.032;2023-08-07T09:00:37;16.60;54.60
37322;DHT22;23697;48.684;9.032;2023-08-07T09:03:08;16.40;58.50
37322;DHT22;23697;48.684;9.032;2023-08-07T09:05:35;16.20;58.60
37322;DHT22;23697;48.684;9.032;2023-08-07T09:08:03;16.20;58.60
37322;DHT22;23697;48.684;9.032;2023-08-07T09:10:32;16.80;55.30
37322;DHT22;23697;48.684;9.032;2023-08-07T09:13:02;17.20;55.60
37322;DHT22;23697;48.684;9.032;2023-08-07T09:15:32;17.60;55.10
37322;DHT22;23697;48.684;9.032;2023-08-07T09:17:59;17.90;53.20
37322;DHT22;23697;48.684;9.032;2023-08-07T09:20:28;17.50;52.40
37322;DHT22;23697;48.684;9.032;2023-08-07T09:22:56;17.10;53.60
37322;DHT22;23697;48.684;9.032;2023-08-07T09:25:29;17.30;56.10
37322;DHT22;23697;48.684;9.032;2023-08-07T09:27:57;18.00;55.70
37322;DHT22;23697;48.684;9.032;2023-08-07T09:30:27;18.10;53.20
37322;DHT22;23697;48.684;9.032;2023-08-07T09:32:56;18.10;52.10
37322;DHT22;23697;48.684;9.032;2023-08-07T09:35:23;18.20;54.10
37322;DHT22;23697;48.684;9.032;2023-08-07T09:37:56;18.10;53.60
37322;DHT22;23697;48.684;9.032;2023-08-07T09:40:24;17.80;54.20
37322;DHT22;23697;48.684;9.032;2023-08-07T09:42:56;17.50;54.30
37322;DHT22;23697;48.684;9.032;2023-08-07T09:45:28;17.10;56.10
37322;DHT22;23697;48.684;9.032;2023-08-07T09:47:58;17.00;57.40
37322;DHT22;23697;48.684;9.032;2023-08-07T09:50:26;16.80;56.40
37322;DHT22;23697;48.684;9.032;2023-08-07T09:52:54;16.70;56.30
37322;DHT22;23697;48.684;9.032;2023-08-07T09:55:22;16.70;56.40
37322;DHT22;23697;48.684;9.032;2023-08-07T09:57:49;16.50;56.60
37322;DHT22;23697;48.684;9.032;2023-08-07T10:00:17;16.30;56.80
37322;DHT22;23697;48.684;9.032;2023-08-07T10:02:46;16.10;58.20
37322;DHT22;23697;48.684;9.032;2023-08-07T10:05:13;16.10;58.60
37322;DHT22;23697;48.684;9.032;2023-08-07T10:07:41;16.00;59.40
37322;DHT22;23697;48.684;9.032;2023-08-07T10:10:10;16.00;60.10
37322;DHT22;23697;48.684;9.032;2023-08-07T10:12:38;16.10;58.70
37322;DHT22;23697;48.684;9.032;2023-08-07T10:15:06;15.90;59.60
37322;DHT22;23697;48.684;9.032;2023-08-07T10:17:33;16.10;61.20
37322;DHT22;23697;48.684;9.032;2023-08-07T10:20:00;16.20;57.70
37322;DHT22;23697;48.684;9.032;2023-08-07T10:22:29;16.80;59.00
37322;DHT22;23697;48.684;9.032;2023-08-07T10:24:58;17.30;55.00
37322;DHT22;23697;48.684;9.032;2023-08-07T10:27:32;17.10;56.40
37322;DHT22;23697;48.684;9.032;2023-08-07T10:30:01;17.10;56.00
37322;DHT22;23697;48.684;9.032;2023-08-07T10:32:32;17.10;55.60
37322;DHT22;23697;48.684;9.032;2023-08-07T10:35:02;16.90;56.00
37322;DHT22;23697;48.684;9.032;2023-08-07T10:37:38;16.70;56.80
37322;DHT22;23697;48.684;9.032;2023-08-07T10:40:06;16.60;58.40
37322;DHT22;23697;48.684;9.032;2023-08-07T10:42:56;16.70;59.50
37322;DHT22;23697;48.684;9.032;2023-08-07T10:45:25;16.40;57.20
37322;DHT22;23697;48.684;9.032;2023-08-07T10:48:17;16.40;58.70
37322;DHT22;23697;48.684;9.032;2023-08-07T10:50:50;16.60;57.30
37322;DHT22;23697;48.684;9.032;2023-08-07T10:53:21;16.60;58.80
37322;DHT22;23697;48.684;9.032;2023-08-07T10:55:54;16.50;58.20
37322;DHT22;23697;48.684;9.032;2023-08-07T10:58:25;16.50;59.60
37322;DHT22;23697;48.684;9.032;2023-08-07T11:01:19;16.40;57.40
37322;DHT22;23697;48.684;9.032;2023-08-07T11:03:50;16.50;59.30
37322;DHT22;23697;48.684;9.032;2023-08-07T11:06:18;17.10;59.60
37322;DHT22;23697;48.684;9.032;2023-08-07T11:09:00;17.50;55.70
37322;DHT22;23697;48.684;9.032;2023-08-07T11:11:36;17.40;56.80
37322;DHT22;23697;48.684;9.032;2023-08-07T11:14:07;17.10;57.00
37322;DHT22;23697;48.684;9.032;2023-08-07T11:16:34;16.90;56.70
37322;DHT22;23697;48.684;9.032;2023-08-07T11:19:01;16.90;58.40
37322;DHT22;23697;48.684;9.032;2023-08-07T11:21:29;16.80;59.50
37322;DHT22;23697;48.684;9.032;2023-08-07T11:23:57;16.50;58.80
37322;DHT22;23697;48.684;9.032;2023-08-07T11:26:24;16.40;58.60
37322;DHT22;23697;48.684;9.032;2023-08-07T11:28:51;16.40;60.70
37322;DHT22;23697;48.684;9.032;2023-08-07T11:31:23;16.50;57.70
37322;DHT22;23697;48.684;9.032;2023-08-07T11:33:54;16.50;57.80
37322;DHT22;23697;48.684;9.032;2023-08-07T11:36:25;16.40;58.20
37322;DHT22;23697;48.684;9.032;2023-08-07T11:38:52;16.30;57.80
37322;DHT22;23697;48.684;9.032;2023-08-07T11:41:19;16.20;59.40
37322;DHT22;23697;48.684;9.032;2023-08-07T11:43:46;15.90;59.20
37322;DHT22;23697;48.684;9.032;2023-08-07T11:46:15;15.80;60.90
37322;DHT22;23697;48.684;9.032;2023-08-07T11:48:44;15.70;60.60
37322;DHT22;23697;48.684;9.032;2023-08-07T11:51:11;15.60;61.20
37322;DHT22;23697;48.684;9.032;2023-08-07T11:53:40;15.50;61.60
37322;DHT22;23697;48.684;9.032;2023-08-07T11:56:08;15.40;61.90
37322;DHT22;23697;48.684;9.032;2023-08-07T11:58:40;15.40;62.10
37322;DHT22;23697;48.684;9.032;2023-08-07T12:01:10;15.30;62.00
37322;DHT22;23697;48.684;9.032;2023-08-07T12:03:38;15.30;62.90
37322;DHT22;23697;48.684;9.032;2023-08-07T12:06:09;15.30;63.60
37322;DHT22;23697;48.684;9.032;2023-08-07T12:08:37;15.30;62.10
37322;DHT22;23697;48.684;9.032;2023-08-07T12:11:05;15.20;62.00
37322;DHT22;23697;48.684;9.032;2023-08-07T12:13:33;15.20;64.00
37322;DHT22;23697;48.684;9.032;2023-08-07T12:16:01;15.10;66.50
37322;DHT22;23697;48.684;9.032;2023-08-07T12:18:30;15.00;69.60
37322;DHT22;23697;48.684;9.032;2023-08-07T12:20:58;14.80;70.60
37322;DHT22;23697;48.684;9.032;2023-08-07T12:23:27;14.80;73.50
37322;DHT22;23697;48.684;9.032;2023-08-07T12:25:55;14.60;73.20
37322;DHT22;23697;48.684;9.032;2023-08-07T12:28:22;14.50;73.50
37322;DHT22;23697;48.684;9.032;2023-08-07T12:30:50;14.40;73.20
37322;DHT22;23697;48.684;9.032;2023-08-07T12:33:18;14.50;73.20
37322;DHT22;23697;48.684;9.032;2023-08-07T12:35:45;14.60;73.70
37322;DHT22;23697;48.684;9.032;2023-08-07T12:38:12;14.70;72.40
37322;DHT22;23697;48.684;9.032;2023-08-07T12:40:41;15.00;74.10
37322;DHT22;23697;48.684;9.032;2023-08-07T12:43:08;15.10;71.80
37322;DHT22;23697;48.684;9.032;2023-08-07T12:45:35;14.90;69.60
37322;DHT22;23697;48.684;9.032;2023-08-07T12:48:02;14.80;71.60
37322;DHT22;23697;48.684;9.032;2023-08-07T12:50:29;14.80;71.70
37322;DHT22;23697;48.684;9.032;2023-08-07T12:52:56;14.70;70.50
37322;DHT22;23697;48.684;9.032;2023-08-07T12:55:24;14.60;71.10
37322;DHT22;23697;48.684;9.032;2023-08-07T12:57:53;14.70;72.40
37322;DHT22;23697;48.684;9.032;2023-08-07T13:00:21;14.70;73.30
37322;DHT22;23697;48.684;9.032;2023-08-07T13:02:49;14.60;72.60
37322;DHT22;23697;48.684;9.032;2023-08-07T13:05:17;14.70;73.60
37322;DHT22;23697;48.684;9.032;2023-08-07T13:07:45;14.80;72.90
37322;DHT22;23697;48.684;9.032;2023-08-07T13:10:13;15.00;73.70
37322;DHT22;23697;48.684;9.032;2023-08-07T13:12:44;15.10;73.00
37322;DHT22;23697;48.684;9.032;2023-08-07T13:15:13;15.30;71.60
37322;DHT22;23697;48.684;9.032;2023-08-07T13:17:40;15.50;69.60
37322;DHT22;23697;48.684;9.032;2023-08-07T13:20:08;15.60;69.80
37322;DHT22;23697;48.684;9.032;2023-08-07T13:22:35;15.70;67.40
37322;DHT22;23697;48.684;9.032;2023-08-07T13:25:03;15.70;66.60
37322;DHT22;23697;48.684;9.032;2023-08-07T13:27:30;15.80;67.80
37322;DHT22;23697;48.684;9.032;2023-08-07T13:29:57;15.80;66.50
37322;DHT22;23697;48.684;9.032;2023-08-07T13:32:25;15.60;64.60
37322;DHT22;23697;48.684;9.032;2023-08-07T13:34:53;15.60;64.80
37322;DHT22;23697;48.684;9.032;2023-08-07T13:37:20;15.50;65.70
37322;DHT22;23697;48.684;9.032;2023-08-07T13:39:47;15.60;66.00
37322;DHT22;23697;48.684;9.032;2023-08-07T13:42:16;16.40;62.40
37322;DHT22;23697;48.684;9.032;2023-08-07T13:44:46;17.30;61.80
37322;DHT22;23697;48.684;9.032;2023-08-07T13:47:28;17.80;57.80
37322;DHT22;23697;48.684;9.032;2023-08-07T13:49:55;18.50;57.30
37322;DHT22;23697;48.684;9.032;2023-08-07T13:52:23;18.70;55.70
37322;DHT22;23697;48.684;9.032;2023-08-07T13:54:53;18.80;55.50
37322;DHT22;23697;48.684;9.032;2023-08-07T13:57:20;19.00;54.60
37322;DHT22;23697;48.684;9.032;2023-08-07T13:59:47;18.80;55.50
37322;DHT22;23697;48.684;9.032;2023-08-07T14:02:21;18.90;54.20
37322;DHT22;23697;48.684;9.032;2023-08-07T14:04:50;19.20;54.80
37322;DHT22;23697;48.684;9.032;2023-08-07T14:07:17;19.30;54.00
37322;DHT22;23697;48.684;9.032;2023-08-07T14:09:44;19.00;54.00
37322;DHT22;23697;48.684;9.032;2023-08-07T14:12:11;18.60;54.50
37322;DHT22;23697;48.684;9.032;2023-08-07T14:14:37;18.10;54.70
37322;DHT22;23697;48.684;9.032;2023-08-07T14:17:05;17.90;56.30
37322;DHT22;23697;48.684;9.032;2023-08-07T14:19:39;18.10;56.40
37322;DHT22;23697;48.684;9.032;2023-08-07T14:22:09;17.90;56.60
37322;DHT22;23697;48.684;9.032;2023-08-07T14:24:46;18.00;54.10
37322;DHT22;23697;48.684;9.032;2023-08-07T14:27:24;18.10;53.80
37322;DHT22;23697;48.684;9.032;2023-08-07T14:29:51;18.00;57.20
37322;DHT22;23697;48.684;9.032;2023-08-07T14:32:18;17.90;55.00
37322;DHT22;23697;48.684;9.032;2023-08-07T14:34:45;17.70;56.50
37322;DHT22;23697;48.684;9.032;2023-08-07T14:37:14;17.60;56.80
37322;DHT22;23697;48.684;9.032;2023-08-07T14:39:41;17.50;57.80
37322;DHT22;23697;48.684;9.032;2023-08-07T14:42:11;17.30;58.00
37322;DHT22;23697;48.684;9.032;2023-08-07T14:44:38;17.00;58.30
37322;DHT22;23697;48.684;9.032;2023-08-07T14:47:05;16.90;59.10
37322;DHT22;23697;48.684;9.032;2023-08-07T14:49:32;16.70;59.90
37322;DHT22;23697;48.684;9.032;2023-08-07T14:51:59;16.60;61.00
37322;DHT22;23697;48.684;9.032;2023-08-07T14:54:27;16.60;60.10
37322;DHT22;23697;48.684;9.032;2023-08-07T14:56:54;16.50;61.10
37322;DHT22;23697;48.684;9.032;2023-08-07T14:59:20;16.40;60.00
37322;DHT22;23697;48.684;9.032;2023-08-07T15:01:47;16.40;60.10
37322;DHT22;23697;48.684;9.032;2023-08-07T15:04:14;16.30;59.00
37322;DHT22;23697;48.684;9.032;2023-08-07T15:06:41;16.40;59.80
37322;DHT22;23697;48.684;9.032;2023-08-07T15:09:12;16.40;60.20
37322;DHT22;23697;48.684;9.032;2023-08-07T15:11:41;16.50;61.70
37322;DHT22;23697;48.684;9.032;2023-08-07T15:14:08;16.60;60.30
37322;DHT22;23697;48.684;9.032;2023-08-07T15:16:34;16.60;60.10
37322;DHT22;23697;48.684;9.032;2023-08-07T15:19:02;16.80;58.20
37322;DHT22;23697;48.684;9.032;2023-08-07T15:21:30;17.40;58.20
37322;DHT22;23697;48.684;9.032;2023-08-07T15:23:57;17.80;57.40
37322;DHT22;23697;48.684;9.032;2023-08-07T15:26:24;17.60;55.40
37322;DHT22;23697;48.684;9.032;2023-08-07T15:28:52;17.50;56.50
37322;DHT22;23697;48.684;9.032;2023-08-07T15:31:19;17.40;57.60
37322;DHT22;23697;48.684;9.032;2023-08-07T15:33:46;17.20;57.90
37322;DHT22;23697;48.684;9.032;2023-08-07T15:36:16;17.10;58.90
37322;DHT22;23697;48.684;9.032;2023-08-07T15:38:43;17.00;58.30
37322;DHT22;23697;48.684;9.032;2023-08-07T15:41:10;17.00;60.40